This is the latest recevied weather packets stored in our database for station/object OK3MS-5. If no packets are shown the sender has not sent any weather packets the latest 10 day(s).
| Time | Temp. | Humidity | Pressure | Rain* | Wind** | Luminosity | Snow |
|---|---|---|---|---|---|---|---|
| 1777706102 | 13.89° C | 59% | 1024.4 hPa | 0 mm | - | 387 W/m² | - |
| 1777705802 | 13.33° C | 62% | 1024.5 hPa | 0 mm | - | 372 W/m² | - |
| 1777705504 | 12.78° C | 63% | 1024.5 hPa | 0 mm | - | 356 W/m² | - |
| 1777705202 | 12.78° C | 63% | 1024.5 hPa | 0 mm | - | 340 W/m² | - |
| 1777704904 | 12.78° C | 63% | 1024.7 hPa | 0 mm | - | 324 W/m² | - |
| 1777704602 | 12.22° C | 63% | 1024.8 hPa | 0 mm | - | 305 W/m² | - |
| 1777704302 | 12.22° C | 65% | 1024.7 hPa | 0 mm | - | 290 W/m² | - |
| 1777704002 | 11.67° C | 65% | 1024.9 hPa | 0 mm | - | 273 W/m² | - |
| 1777703703 | 11.67° C | 66% | 1024.9 hPa | 0 mm | - | 258 W/m² | - |
| 1777703403 | 11.11° C | 66% | 1025 hPa | 0 mm | - | 245 W/m² | - |
| 1777703102 | 11.11° C | 67% | 1025.1 hPa | 0 mm | - | 220 W/m² | - |
| 1777702802 | 11.11° C | 68% | 1025.1 hPa | 0 mm | - | 52 W/m² | - |
| 1777702505 | 11.11° C | 66% | 1025.1 hPa | 0 mm | - | 50 W/m² | - |
| 1777702204 | 11.11° C | 66% | 1025.1 hPa | 0 mm | - | 48 W/m² | - |
| 1777701903 | 10° C | 67% | 1025.3 hPa | 0 mm | - | 48 W/m² | - |
| 1777701602 | 9.44° C | 70% | 1025.4 hPa | 0 mm | - | 46 W/m² | - |
| 1777701302 | 10° C | 70% | 1025.3 hPa | 0 mm | - | 46 W/m² | - |
| 1777701005 | 10° C | 68% | 1025.3 hPa | 0 mm | - | 45 W/m² | - |
| 1777700703 | 9.44° C | 71% | 1025.4 hPa | 0 mm | - | 44 W/m² | - |
| 1777700405 | 8.89° C | 75% | 1025.5 hPa | 0 mm | - | 43 W/m² | - |
| 1777700102 | 8.33° C | 76% | 1025.6 hPa | 0 mm | - | 42 W/m² | - |
| 1777699802 | 8.33° C | 78% | 1025.8 hPa | 0 mm | - | 42 W/m² | - |
| 1777699509 | 7.78° C | 81% | 1025.9 hPa | 0 mm | - | 75 W/m² | - |
| 1777699203 | 7.22° C | 81% | 1026 hPa | 0 mm | - | 68 W/m² | - |
| 1777698904 | 6.67° C | 83% | 1026 hPa | 0 mm | - | 42 W/m² | - |
* Rain latest hour (hover to see other rain measurements)
** Current wind speed in m/s (hover to see current wind gust speed)